Time;durP1;ratioP1;P1;durP2;ratioP2;P2;SDS_P1;SDS_P2;PMS_P1;PMS_P2;Temp;Humidity;BMP_temperature;BMP_pressure;BME280_temperature;BME280_humidity;BME280_pressure;Samples;Min_cycle;Max_cycle;Signal;HPM_P1;HPM_P2
2021/06/05 00:01:23;;;;;;;4.53;2.42;;;;;;;;;;5086927;28;20071;-81
2021/06/05 00:04:08;;;;;;;3.97;2.40;;;;;;;;;;5069635;28;20042;-82
2021/06/05 00:06:53;;;;;;;4.70;2.53;;;;;;;;;;5084944;28;20499;-82
2021/06/05 00:09:39;;;;;;;4.60;2.50;;;;;;;;;;5071104;28;20067;-81
2021/06/05 00:12:25;;;;;;;5.03;2.42;;;;;;;;;;5070386;28;20128;-81
2021/06/05 00:15:12;;;;;;;4.57;2.17;;;;;;;;;;5074551;28;20043;-82
2021/06/05 00:17:57;;;;;;;9.70;2.40;;;;;;;;;;5065424;28;20506;-82
2021/06/05 00:20:42;;;;;;;5.25;2.15;;;;;;;;;;5071115;28;20047;-80
2021/06/05 00:23:26;;;;;;;4.28;2.35;;;;;;;;;;5085438;28;20598;-78
2021/06/05 00:26:11;;;;;;;4.78;2.30;;;;;;;;;;5097475;28;20067;-80
2021/06/05 00:28:56;;;;;;;4.68;2.30;;;;;;;;;;5070072;28;20112;-82
2021/06/05 00:31:40;;;;;;;3.08;2.10;;;;;;;;;;5069837;28;20043;-81
2021/06/05 00:34:25;;;;;;;5.57;2.25;;;;;;;;;;5070068;28;20176;-81
2021/06/05 00:37:09;;;;;;;4.72;2.35;;;;;;;;;;5069650;28;20722;-82
2021/06/05 00:39:54;;;;;;;4.85;2.58;;;;;;;;;;5069500;28;20082;-82
2021/06/05 00:42:39;;;;;;;3.45;2.30;;;;;;;;;;5060224;28;20412;-82
2021/06/05 00:45:23;;;;;;;3.55;2.10;;;;;;;;;;5083935;28;20039;-82
2021/06/05 00:48:08;;;;;;;3.78;2.20;;;;;;;;;;5068997;28;20092;-81
2021/06/05 00:50:53;;;;;;;4.90;2.50;;;;;;;;;;5069852;28;20038;-81
2021/06/05 00:53:38;;;;;;;4.03;2.25;;;;;;;;;;5056089;28;20048;-82
2021/06/05 00:56:22;;;;;;;3.25;2.10;;;;;;;;;;5069526;28;20043;-82
2021/06/05 00:59:08;;;;;;;5.30;2.22;;;;;;;;;;5081667;28;20039;-81
2021/06/05 01:01:52;;;;;;;6.07;2.40;;;;;;;;;;5069960;28;20051;-82
2021/06/05 01:04:37;;;;;;;3.95;2.25;;;;;;;;;;5069307;28;20058;-82
2021/06/05 01:07:28;;;;;;;4.50;2.38;;;;;;;;;;5084125;28;20636;-82
2021/06/05 01:10:21;;;;;;;4.43;2.20;;;;;;;;;;5053988;28;20597;-81
2021/06/05 01:13:12;;;;;;;3.33;1.95;;;;;;;;;;5069950;28;20301;-76
2021/06/05 01:15:57;;;;;;;5.07;2.40;;;;;;;;;;5056790;28;20119;-79
2021/06/05 01:18:44;;;;;;;4.05;2.30;;;;;;;;;;5069013;28;20046;-82
2021/06/05 01:21:40;;;;;;;5.13;2.10;;;;;;;;;;5054819;28;20408;-82
2021/06/05 01:24:44;;;;;;;3.25;2.10;;;;;;;;;;5069689;28;20519;-82
2021/06/05 01:27:29;;;;;;;3.30;2.30;;;;;;;;;;5069211;28;20117;-82
2021/06/05 01:30:19;;;;;;;3.92;2.33;;;;;;;;;;5069648;28;20729;-81
2021/06/05 01:33:04;;;;;;;4.82;1.80;;;;;;;;;;5053352;28;20128;-78
2021/06/05 01:35:49;;;;;;;3.47;1.83;;;;;;;;;;5038859;28;20048;-82
2021/06/05 01:38:34;;;;;;;3.80;1.90;;;;;;;;;;5081110;28;20041;-82
2021/06/05 01:41:19;;;;;;;7.50;2.45;;;;;;;;;;5073649;28;20054;-82
2021/06/05 01:44:03;;;;;;;3.88;1.85;;;;;;;;;;5085178;28;20043;-82
2021/06/05 01:46:49;;;;;;;4.97;2.15;;;;;;;;;;5070713;28;20047;-81
2021/06/05 01:49:33;;;;;;;4.20;2.08;;;;;;;;;;5100937;28;20101;-82
2021/06/05 01:52:22;;;;;;;3.85;2.10;;;;;;;;;;5088588;28;20046;-80
2021/06/05 01:55:21;;;;;;;2.92;1.80;;;;;;;;;;5058917;28;20078;-82
2021/06/05 01:58:13;;;;;;;4.53;1.95;;;;;;;;;;5075804;28;20918;-82
2021/06/05 02:00:58;;;;;;;3.22;2.17;;;;;;;;;;5085524;28;20124;-82
2021/06/05 02:03:42;;;;;;;5.07;2.10;;;;;;;;;;5103811;28;20070;-81
2021/06/05 02:06:27;;;;;;;3.10;2.00;;;;;;;;;;5091105;28;20035;-82
2021/06/05 02:09:12;;;;;;;3.85;1.88;;;;;;;;;;5073093;28;20412;-81
2021/06/05 02:11:58;;;;;;;3.10;1.80;;;;;;;;;;5075237;28;20411;-82
2021/06/05 02:14:50;;;;;;;3.22;1.90;;;;;;;;;;5065266;28;20101;-81
2021/06/05 02:17:36;;;;;;;3.03;1.98;;;;;;;;;;5076153;28;20043;-82
2021/06/05 02:20:23;;;;;;;3.63;1.92;;;;;;;;;;5075624;28;20404;-82
2021/06/05 02:23:10;;;;;;;3.80;1.92;;;;;;;;;;5055381;28;20734;-81
2021/06/05 02:25:55;;;;;;;4.50;2.08;;;;;;;;;;5074939;28;20046;-81
2021/06/05 02:28:40;;;;;;;3.40;2.10;;;;;;;;;;5061002;28;20384;-82
2021/06/05 02:31:25;;;;;;;4.45;2.00;;;;;;;;;;5075320;28;20446;-82
2021/06/05 02:34:10;;;;;;;4.63;1.80;;;;;;;;;;5074924;28;20089;-82
2021/06/05 02:36:55;;;;;;;3.70;2.22;;;;;;;;;;5041363;28;20036;-82
2021/06/05 02:39:42;;;;;;;3.45;2.00;;;;;;;;;;5099756;28;21652;-82
2021/06/05 02:42:27;;;;;;;3.42;2.10;;;;;;;;;;5060874;28;20514;-81
2021/06/05 02:45:29;;;;;;;3.75;1.95;;;;;;;;;;5074513;28;20515;-81
2021/06/05 02:48:13;;;;;;;3.95;1.90;;;;;;;;;;5059043;28;20514;-81
2021/06/05 02:50:58;;;;;;;3.92;2.25;;;;;;;;;;5074832;28;20043;-81
2021/06/05 02:53:42;;;;;;;3.40;2.05;;;;;;;;;;5059164;28;20396;-82
2021/06/05 02:56:27;;;;;;;3.53;2.25;;;;;;;;;;5074595;28;20120;-82
2021/06/05 02:59:11;;;;;;;4.28;2.05;;;;;;;;;;5089483;28;20407;-82
2021/06/05 03:01:56;;;;;;;4.35;2.10;;;;;;;;;;5074883;28;20043;-82
2021/06/05 03:04:40;;;;;;;3.90;2.20;;;;;;;;;;5079985;28;20035;-81
2021/06/05 03:07:25;;;;;;;4.25;2.00;;;;;;;;;;5058261;28;20073;-81
2021/06/05 03:10:10;;;;;;;4.07;2.67;;;;;;;;;;5090054;28;20032;-82
2021/06/05 03:12:55;;;;;;;3.65;2.00;;;;;;;;;;5090099;28;20089;-82
2021/06/05 03:15:39;;;;;;;4.25;2.45;;;;;;;;;;5089997;28;20035;-82
2021/06/05 03:18:24;;;;;;;4.78;2.30;;;;;;;;;;5069986;28;20113;-82
2021/06/05 03:21:10;;;;;;;3.85;2.45;;;;;;;;;;5102474;28;20039;-81
2021/06/05 03:23:55;;;;;;;3.22;2.15;;;;;;;;;;5084522;28;20039;-82
2021/06/05 03:26:39;;;;;;;3.45;2.28;;;;;;;;;;5059000;28;20157;-81
2021/06/05 03:29:24;;;;;;;4.38;2.38;;;;;;;;;;5098952;28;20098;-81
2021/06/05 03:32:09;;;;;;;6.72;2.40;;;;;;;;;;5073028;28;20042;-81
2021/06/05 03:34:54;;;;;;;4.65;2.50;;;;;;;;;;5059745;28;20217;-81
2021/06/05 03:37:38;;;;;;;4.60;2.33;;;;;;;;;;5043951;28;20504;-82
2021/06/05 03:40:24;;;;;;;5.10;2.20;;;;;;;;;;5067600;28;20112;-81
2021/06/05 03:43:09;;;;;;;4.60;2.60;;;;;;;;;;5070832;28;20055;-81
2021/06/05 03:45:54;;;;;;;3.75;2.25;;;;;;;;;;5073801;28;20054;-82
2021/06/05 03:48:38;;;;;;;4.38;2.40;;;;;;;;;;5088866;28;20046;-82
2021/06/05 03:51:23;;;;;;;3.92;2.47;;;;;;;;;;5074038;28;20499;-81
2021/06/05 03:54:08;;;;;;;5.25;3.00;;;;;;;;;;5090727;28;20093;-82
2021/06/05 03:56:52;;;;;;;6.15;2.70;;;;;;;;;;5073835;28;20074;-81
2021/06/05 03:59:37;;;;;;;3.33;2.47;;;;;;;;;;5055662;28;20035;-82
2021/06/05 04:02:21;;;;;;;6.72;2.55;;;;;;;;;;5073317;28;20051;-81
2021/06/05 04:05:07;;;;;;;3.47;2.40;;;;;;;;;;5077088;28;20070;-81
2021/06/05 04:07:51;;;;;;;4.60;2.40;;;;;;;;;;5088432;28;20600;-82
2021/06/05 04:10:36;;;;;;;6.30;2.67;;;;;;;;;;5100793;28;20546;-82
2021/06/05 04:13:21;;;;;;;6.25;2.88;;;;;;;;;;5088674;28;20120;-82
2021/06/05 04:16:05;;;;;;;6.95;2.88;;;;;;;;;;5072840;28;20035;-80
2021/06/05 04:18:50;;;;;;;4.10;2.60;;;;;;;;;;5086244;28;20507;-82
2021/06/05 04:21:35;;;;;;;4.32;2.70;;;;;;;;;;5088932;28;20098;-82
2021/06/05 04:24:19;;;;;;;4.88;2.20;;;;;;;;;;5088162;28;20039;-82
2021/06/05 04:27:04;;;;;;;3.85;2.40;;;;;;;;;;5088389;28;20097;-82
2021/06/05 04:29:49;;;;;;;4.63;2.65;;;;;;;;;;5065570;28;20463;-81
2021/06/05 04:32:34;;;;;;;4.03;2.33;;;;;;;;;;5087917;28;20455;-82
2021/06/05 04:35:18;;;;;;;3.17;2.30;;;;;;;;;;5088465;28;20309;-82
2021/06/05 04:38:03;;;;;;;4.45;2.53;;;;;;;;;;5056259;28;20052;-81
2021/06/05 04:40:48;;;;;;;4.57;2.67;;;;;;;;;;5065942;28;20078;-80
2021/06/05 04:43:32;;;;;;;4.40;2.50;;;;;;;;;;5088747;28;20154;-83
2021/06/05 04:46:17;;;;;;;4.13;2.30;;;;;;;;;;5083407;28;20042;-82
2021/06/05 04:49:02;;;;;;;5.18;2.40;;;;;;;;;;5056956;28;20035;-82
2021/06/05 04:51:47;;;;;;;5.60;2.60;;;;;;;;;;5094192;28;20098;-81
2021/06/05 04:54:32;;;;;;;4.78;2.67;;;;;;;;;;5070375;28;20042;-81
2021/06/05 04:57:16;;;;;;;5.70;2.67;;;;;;;;;;5085034;28;20062;-81
2021/06/05 05:00:01;;;;;;;5.68;2.80;;;;;;;;;;5069421;28;20055;-81
2021/06/05 05:02:46;;;;;;;4.63;2.50;;;;;;;;;;5062052;28;20382;-82
2021/06/05 05:05:31;;;;;;;5.30;2.38;;;;;;;;;;5085458;28;20031;-82
2021/06/05 05:08:15;;;;;;;3.78;2.58;;;;;;;;;;5084801;28;20043;-82
2021/06/05 05:11:00;;;;;;;4.68;2.92;;;;;;;;;;5055131;28;20049;-81
2021/06/05 05:13:45;;;;;;;4.53;2.42;;;;;;;;;;5068785;28;20039;-81
2021/06/05 05:16:29;;;;;;;4.10;2.30;;;;;;;;;;5069140;28;20118;-82
2021/06/05 05:19:14;;;;;;;5.20;2.38;;;;;;;;;;5064586;28;20039;-81
2021/06/05 05:21:59;;;;;;;3.78;2.50;;;;;;;;;;5067737;28;20059;-81
2021/06/05 05:24:43;;;;;;;4.60;2.38;;;;;;;;;;5049068;28;20043;-82
2021/06/05 05:27:27;;;;;;;4.47;2.25;;;;;;;;;;5049264;28;20504;-81
2021/06/05 05:30:15;;;;;;;4.32;2.40;;;;;;;;;;5075822;28;20503;-81
2021/06/05 05:33:00;;;;;;;4.65;2.25;;;;;;;;;;5066693;28;20043;-82
2021/06/05 05:35:44;;;;;;;4.15;2.28;;;;;;;;;;5076210;28;20077;-82
2021/06/05 05:38:29;;;;;;;4.95;2.40;;;;;;;;;;5063919;28;20047;-81
2021/06/05 05:41:14;;;;;;;5.05;2.38;;;;;;;;;;5063339;28;20053;-82
2021/06/05 05:43:59;;;;;;;7.10;3.08;;;;;;;;;;5063669;28;20582;-82
2021/06/05 05:46:43;;;;;;;4.03;2.20;;;;;;;;;;5061988;28;20044;-81
2021/06/05 05:49:29;;;;;;;3.47;2.05;;;;;;;;;;5047251;28;20062;-81
2021/06/05 05:52:13;;;;;;;3.35;2.30;;;;;;;;;;5062444;28;20043;-82
2021/06/05 05:54:57;;;;;;;4.57;2.42;;;;;;;;;;5063616;28;20086;-82
2021/06/05 05:57:42;;;;;;;4.85;2.50;;;;;;;;;;5043372;28;20043;-81
2021/06/05 06:00:28;;;;;;;4.03;2.28;;;;;;;;;;5053329;28;20038;-81
2021/06/05 06:03:13;;;;;;;3.33;2.20;;;;;;;;;;5049569;28;20066;-82
2021/06/05 06:05:57;;;;;;;3.35;2.08;;;;;;;;;;5057547;28;20528;-82
2021/06/05 06:08:42;;;;;;;4.13;2.15;;;;;;;;;;5063665;28;20132;-83
2021/06/05 06:11:26;;;;;;;3.55;2.22;;;;;;;;;;5064193;28;20043;-81
2021/06/05 06:14:11;;;;;;;4.35;2.33;;;;;;;;;;5062697;28;20043;-82
2021/06/05 06:16:56;;;;;;;5.30;2.20;;;;;;;;;;5063574;28;20047;-82
2021/06/05 06:19:40;;;;;;;3.50;2.28;;;;;;;;;;5048883;28;20048;-82
2021/06/05 06:22:25;;;;;;;3.63;2.22;;;;;;;;;;5055680;28;20970;-82
2021/06/05 06:25:10;;;;;;;4.60;2.45;;;;;;;;;;5062946;28;20416;-82
2021/06/05 06:27:54;;;;;;;4.70;2.40;;;;;;;;;;5062580;28;20527;-81
2021/06/05 06:30:39;;;;;;;3.90;2.17;;;;;;;;;;5061244;28;20094;-81
2021/06/05 06:33:24;;;;;;;3.92;2.13;;;;;;;;;;5048876;28;20055;-81
2021/06/05 06:36:09;;;;;;;3.05;2.08;;;;;;;;;;5057134;28;20533;-81
2021/06/05 06:38:53;;;;;;;4.53;2.13;;;;;;;;;;5063057;28;20086;-82
2021/06/05 06:41:38;;;;;;;5.35;2.38;;;;;;;;;;5064738;28;20558;-80
2021/06/05 06:44:23;;;;;;;3.67;2.00;;;;;;;;;;5067320;28;20048;-82
2021/06/05 06:47:08;;;;;;;3.53;2.05;;;;;;;;;;5065843;28;20085;-81
2021/06/05 06:49:52;;;;;;;3.38;2.10;;;;;;;;;;5066056;28;20055;-82
2021/06/05 06:52:37;;;;;;;3.08;1.85;;;;;;;;;;5066736;28;20040;-82
2021/06/05 06:55:22;;;;;;;3.78;2.08;;;;;;;;;;5055683;28;20115;-83
2021/06/05 06:58:06;;;;;;;4.45;2.25;;;;;;;;;;5066680;28;20048;-81
2021/06/05 07:00:51;;;;;;;3.70;1.80;;;;;;;;;;5065733;28;20516;-81
2021/06/05 07:03:36;;;;;;;4.35;2.08;;;;;;;;;;5066185;28;20098;-80
2021/06/05 07:06:22;;;;;;;2.72;1.80;;;;;;;;;;5052338;28;20086;-82
2021/06/05 07:09:07;;;;;;;3.45;2.03;;;;;;;;;;5066083;28;20039;-82
2021/06/05 07:11:51;;;;;;;2.80;2.00;;;;;;;;;;5079960;28;20043;-80
2021/06/05 07:14:36;;;;;;;3.17;2.00;;;;;;;;;;5067191;28;20035;-82
2021/06/05 07:17:20;;;;;;;3.53;1.83;;;;;;;;;;5066958;28;20040;-80
2021/06/05 07:20:06;;;;;;;3.53;1.83;;;;;;;;;;5067243;28;20454;-82
2021/06/05 07:22:52;;;;;;;2.63;1.77;;;;;;;;;;5046574;28;20114;-81
2021/06/05 07:25:36;;;;;;;3.20;1.92;;;;;;;;;;5063319;28;20439;-82
2021/06/05 07:28:21;;;;;;;4.60;1.88;;;;;;;;;;5086012;28;20047;-82
2021/06/05 07:31:06;;;;;;;2.28;1.80;;;;;;;;;;5086678;28;20069;-82
2021/06/05 07:33:51;;;;;;;2.22;1.60;;;;;;;;;;5071882;28;20054;-81
2021/06/05 07:36:37;;;;;;;4.18;1.70;;;;;;;;;;5063598;28;20503;-82
2021/06/05 07:39:23;;;;;;;3.63;1.88;;;;;;;;;;5074129;28;20123;-82
2021/06/05 07:42:08;;;;;;;2.17;1.73;;;;;;;;;;5072585;28;20038;-82
2021/06/05 07:44:53;;;;;;;2.42;1.83;;;;;;;;;;5053914;28;20427;-82
2021/06/05 07:47:38;;;;;;;3.58;2.00;;;;;;;;;;5082749;28;20051;-82
2021/06/05 07:50:23;;;;;;;2.53;1.65;;;;;;;;;;5055480;28;20100;-82
2021/06/05 07:53:08;;;;;;;2.70;1.60;;;;;;;;;;5083415;28;20086;-82
2021/06/05 07:55:52;;;;;;;2.95;1.90;;;;;;;;;;5063824;28;20139;-82
2021/06/05 07:58:37;;;;;;;3.35;1.80;;;;;;;;;;5071918;28;20132;-82
2021/06/05 08:01:25;;;;;;;2.42;1.80;;;;;;;;;;5070039;28;20043;-82
2021/06/05 08:04:10;;;;;;;3.03;1.60;;;;;;;;;;5083111;28;20046;-82
2021/06/05 08:06:56;;;;;;;3.10;1.60;;;;;;;;;;5068820;28;20400;-83
2021/06/05 08:09:41;;;;;;;2.42;1.52;;;;;;;;;;5070610;28;20112;-80
2021/06/05 08:12:26;;;;;;;2.85;1.80;;;;;;;;;;5068712;28;20107;-83
2021/06/05 08:15:11;;;;;;;3.17;1.60;;;;;;;;;;5067216;28;20040;-82
2021/06/05 08:17:56;;;;;;;3.65;1.70;;;;;;;;;;5066019;28;20046;-82
2021/06/05 08:20:42;;;;;;;2.85;1.63;;;;;;;;;;5054819;28;20470;-82
2021/06/05 08:23:28;;;;;;;2.85;1.80;;;;;;;;;;5054562;28;20100;-83
2021/06/05 08:26:13;;;;;;;3.35;1.55;;;;;;;;;;5069449;28;20097;-81
2021/06/05 08:28:58;;;;;;;2.67;1.42;;;;;;;;;;5052392;28;20109;-81
2021/06/05 08:31:43;;;;;;;2.40;1.60;;;;;;;;;;5068954;28;20043;-80
2021/06/05 08:34:29;;;;;;;2.33;1.45;;;;;;;;;;5069115;28;20062;-80
2021/06/05 08:37:14;;;;;;;2.53;1.40;;;;;;;;;;5083795;28;20131;-81
2021/06/05 08:39:58;;;;;;;2.20;1.40;;;;;;;;;;5066928;28;20038;-81
2021/06/05 08:42:48;;;;;;;3.15;1.40;;;;;;;;;;5054580;28;20059;-81
2021/06/05 08:45:33;;;;;;;1.85;1.58;;;;;;;;;;5068447;28;20039;-81
2021/06/05 08:48:18;;;;;;;2.20;1.25;;;;;;;;;;5068908;28;20039;-81
2021/06/05 08:51:21;;;;;;;1.95;1.30;;;;;;;;;;5071924;28;20074;-82
2021/06/05 08:54:18;;;;;;;2.97;1.50;;;;;;;;;;5081881;28;20039;-82
2021/06/05 08:57:07;;;;;;;1.90;1.25;;;;;;;;;;5068285;28;20054;-82
2021/06/05 08:59:52;;;;;;;1.45;1.25;;;;;;;;;;5070033;28;20856;-82
2021/06/05 09:02:37;;;;;;;2.90;1.38;;;;;;;;;;5051897;28;20047;-81
2021/06/05 09:05:23;;;;;;;1.67;1.33;;;;;;;;;;5068003;28;20073;-82
2021/06/05 09:08:09;;;;;;;1.92;1.63;;;;;;;;;;5069096;28;20047;-82
2021/06/05 09:10:54;;;;;;;1.90;1.20;;;;;;;;;;5067646;28;20137;-82
2021/06/05 09:13:39;;;;;;;1.30;1.08;;;;;;;;;;5068748;28;20096;-82
2021/06/05 09:16:25;;;;;;;1.45;1.10;;;;;;;;;;5068789;28;20039;-82
2021/06/05 09:19:09;;;;;;;1.90;0.95;;;;;;;;;;5069587;28;20039;-82
2021/06/05 09:22:00;;;;;;;1.58;1.10;;;;;;;;;;5071220;28;20106;-82
2021/06/05 09:24:54;;;;;;;2.13;1.08;;;;;;;;;;5064961;28;20597;-82
2021/06/05 09:27:40;;;;;;;1.80;1.02;;;;;;;;;;5068929;28;20059;-82
2021/06/05 09:30:34;;;;;;;1.30;1.00;;;;;;;;;;5068869;28;20077;-82
2021/06/05 09:33:30;;;;;;;2.10;1.17;;;;;;;;;;5068864;28;20046;-81
2021/06/05 09:36:30;;;;;;;1.50;0.93;;;;;;;;;;5065800;28;20077;-81
2021/06/05 09:39:16;;;;;;;1.40;1.00;;;;;;;;;;5078455;28;20039;-81
2021/06/05 09:42:00;;;;;;;1.98;0.90;;;;;;;;;;5082516;28;20100;-82
2021/06/05 09:44:46;;;;;;;1.65;0.95;;;;;;;;;;5083065;28;20085;-81
2021/06/05 09:47:31;;;;;;;1.20;0.98;;;;;;;;;;5068394;28;20039;-81
2021/06/05 09:50:21;;;;;;;2.08;1.00;;;;;;;;;;5053223;28;20035;-82
2021/06/05 09:53:17;;;;;;;1.67;1.05;;;;;;;;;;5067511;28;20118;-78
2021/06/05 09:56:03;;;;;;;1.40;0.90;;;;;;;;;;5066233;28;20461;-82
2021/06/05 09:58:48;;;;;;;1.00;0.90;;;;;;;;;;5068610;28;20503;-81
2021/06/05 10:01:34;;;;;;;1.73;1.00;;;;;;;;;;5068513;28;20491;-82
2021/06/05 10:04:21;;;;;;;3.22;1.05;;;;;;;;;;5091463;28;20047;-83
2021/06/05 10:07:21;;;;;;;1.95;1.02;;;;;;;;;;5078153;28;20039;-81
2021/06/05 10:10:09;;;;;;;1.02;0.90;;;;;;;;;;5064815;28;20510;-82
2021/06/05 10:12:53;;;;;;;1.30;1.10;;;;;;;;;;5050876;28;20036;-82
2021/06/05 10:15:57;;;;;;;1.30;0.90;;;;;;;;;;5072501;28;20093;-81
2021/06/05 10:18:46;;;;;;;1.20;0.90;;;;;;;;;;5069903;28;20244;-81
2021/06/05 10:21:44;;;;;;;1.48;1.00;;;;;;;;;;5079882;28;20066;-82
2021/06/05 10:24:49;;;;;;;1.48;0.90;;;;;;;;;;5061012;28;20054;-82
2021/06/05 10:27:37;;;;;;;1.15;0.90;;;;;;;;;;5052926;28;20087;-82
2021/06/05 10:30:28;;;;;;;1.25;1.05;;;;;;;;;;5062543;28;20582;-83
2021/06/05 10:33:15;;;;;;;2.15;1.00;;;;;;;;;;5082863;28;20152;-84
2021/06/05 10:36:00;;;;;;;1.17;1.02;;;;;;;;;;5068006;28;20080;-83
2021/06/05 10:38:48;;;;;;;0.80;0.80;;;;;;;;;;5052318;28;20043;-85
2021/06/05 10:41:34;;;;;;;1.13;0.88;;;;;;;;;;5054579;28;20043;-75
2021/06/05 10:44:19;;;;;;;1.38;1.10;;;;;;;;;;5114075;27;20054;-84
2021/06/05 10:47:04;;;;;;;1.48;0.95;;;;;;;;;;5086682;28;20194;-84
2021/06/05 10:49:57;;;;;;;2.10;1.02;;;;;;;;;;5086481;28;20059;-82
2021/06/05 10:52:49;;;;;;;2.38;0.95;;;;;;;;;;5085657;28;20506;-83
2021/06/05 10:55:35;;;;;;;2.03;1.20;;;;;;;;;;5071636;28;20062;-84
2021/06/05 10:58:24;;;;;;;1.80;1.30;;;;;;;;;;5076231;28;20051;-84
2021/06/05 11:01:13;;;;;;;1.45;0.90;;;;;;;;;;5088343;28;20046;-84
2021/06/05 11:04:01;;;;;;;1.50;1.13;;;;;;;;;;5072168;28;20066;-84
2021/06/05 11:06:46;;;;;;;2.13;1.02;;;;;;;;;;5072002;28;20682;-84
2021/06/05 11:09:31;;;;;;;2.20;0.98;;;;;;;;;;5060726;28;20043;-83
2021/06/05 11:12:16;;;;;;;1.45;1.10;;;;;;;;;;5075537;28;20039;-76
2021/06/05 11:15:01;;;;;;;2.90;1.23;;;;;;;;;;5073103;28;20042;-84
2021/06/05 11:17:45;;;;;;;2.10;1.70;;;;;;;;;;5054034;28;20123;-84
2021/06/05 11:20:32;;;;;;;1.33;0.88;;;;;;;;;;5083382;28;20066;-83
2021/06/05 11:23:16;;;;;;;1.30;0.88;;;;;;;;;;5066450;28;20128;-83
2021/06/05 11:26:21;;;;;;;1.30;0.98;;;;;;;;;;5076395;28;20420;-84
2021/06/05 11:29:15;;;;;;;1.30;1.00;;;;;;;;;;5079459;28;20077;-84
2021/06/05 11:32:18;;;;;;;1.30;1.00;;;;;;;;;;5087148;28;20039;-84
2021/06/05 11:35:06;;;;;;;1.30;1.00;;;;;;;;;;5106243;28;20124;-84
2021/06/05 11:37:52;;;;;;;1.30;1.00;;;;;;;;;;5056404;28;20043;-83
2021/06/05 11:40:49;;;;;;;1.25;1.05;;;;;;;;;;5070730;28;20054;-83
2021/06/05 11:43:35;;;;;;;1.33;1.02;;;;;;;;;;5091633;28;20101;-84
2021/06/05 11:46:22;;;;;;;1.98;1.10;;;;;;;;;;5085985;28;20506;-84
2021/06/05 11:49:07;;;;;;;2.10;1.20;;;;;;;;;;5087740;28;20055;-84
2021/06/05 11:51:52;;;;;;;1.25;1.00;;;;;;;;;;5096449;28;20047;-84
2021/06/05 11:54:36;;;;;;;1.23;1.10;;;;;;;;;;5068950;28;20061;-84
2021/06/05 11:57:23;;;;;;;2.00;1.20;;;;;;;;;;5069499;28;20034;-83
2021/06/05 12:00:08;;;;;;;1.88;1.08;;;;;;;;;;5056945;28;20420;-84
2021/06/05 12:03:04;;;;;;;1.65;1.13;;;;;;;;;;5087991;28;20113;-84
2021/06/05 12:05:48;;;;;;;1.73;1.00;;;;;;;;;;5097688;28;20461;-82
2021/06/05 12:08:33;;;;;;;3.03;1.00;;;;;;;;;;5068838;28;20073;-84
2021/06/05 12:11:22;;;;;;;2.03;1.00;;;;;;;;;;5084422;28;20034;-78
2021/06/05 12:14:17;;;;;;;2.38;1.00;;;;;;;;;;5083950;28;20043;-83
2021/06/05 12:17:01;;;;;;;1.63;1.08;;;;;;;;;;5093042;28;20174;-85
2021/06/05 12:19:46;;;;;;;2.40;1.10;;;;;;;;;;5076700;28;20748;-84
2021/06/05 12:22:31;;;;;;;2.28;1.10;;;;;;;;;;5070796;28;20411;-84
2021/06/05 12:25:28;;;;;;;2.50;1.20;;;;;;;;;;5079511;28;20070;-83
2021/06/05 12:28:29;;;;;;;2.00;1.23;;;;;;;;;;5085199;28;20055;-85
2021/06/05 12:31:13;;;;;;;2.13;1.25;;;;;;;;;;5055341;28;20035;-84
2021/06/05 12:33:59;;;;;;;3.80;1.30;;;;;;;;;;5070103;28;20066;-85
2021/06/05 12:36:44;;;;;;;2.25;1.05;;;;;;;;;;5069668;28;20051;-84
2021/06/05 12:39:44;;;;;;;3.03;1.27;;;;;;;;;;5068917;28;20039;-84
2021/06/05 12:42:33;;;;;;;2.03;1.15;;;;;;;;;;5067842;28;20092;-85
2021/06/05 12:45:22;;;;;;;1.27;1.02;;;;;;;;;;5090065;28;20035;-85
2021/06/05 12:48:09;;;;;;;1.50;1.13;;;;;;;;;;5062056;28;20046;-84
2021/06/05 12:50:54;;;;;;;1.60;1.20;;;;;;;;;;5080720;28;20059;-84
2021/06/05 12:53:38;;;;;;;1.90;1.20;;;;;;;;;;5069481;28;20519;-85
2021/06/05 12:56:31;;;;;;;1.73;1.10;;;;;;;;;;5053996;28;20043;-85
2021/06/05 12:59:16;;;;;;;1.40;1.10;;;;;;;;;;5085869;28;20081;-84
2021/06/05 13:02:20;;;;;;;1.58;1.20;;;;;;;;;;5066197;28;20038;-85
2021/06/05 13:05:16;;;;;;;1.60;1.10;;;;;;;;;;5084483;28;20123;-85
2021/06/05 13:08:10;;;;;;;1.45;1.20;;;;;;;;;;5054624;28;20043;-79
2021/06/05 13:10:55;;;;;;;2.03;1.30;;;;;;;;;;5066203;28;20124;-80
2021/06/05 13:13:39;;;;;;;2.38;1.20;;;;;;;;;;5065049;28;20039;-83
2021/06/05 13:16:25;;;;;;;2.10;1.40;;;;;;;;;;5079059;28;20034;-85
2021/06/05 13:19:13;;;;;;;1.92;1.30;;;;;;;;;;5061309;28;20112;-85
2021/06/05 13:22:16;;;;;;;1.50;1.27;;;;;;;;;;5093810;28;20446;-85
2021/06/05 13:25:06;;;;;;;2.13;1.33;;;;;;;;;;5095907;28;20516;-84
2021/06/05 13:28:00;;;;;;;1.70;1.23;;;;;;;;;;5062842;28;20265;-77
2021/06/05 13:30:47;;;;;;;1.60;1.38;;;;;;;;;;5075041;28;20090;-85
2021/06/05 13:33:34;;;;;;;2.17;1.23;;;;;;;;;;5069353;28;20117;-85
2021/06/05 13:36:28;;;;;;;2.17;1.20;;;;;;;;;;5067404;28;20047;-85
2021/06/05 13:39:14;;;;;;;1.33;1.20;;;;;;;;;;5082356;28;20043;-84
2021/06/05 13:41:59;;;;;;;1.48;1.30;;;;;;;;;;5063392;28;20098;-84
2021/06/05 13:44:44;;;;;;;1.58;1.25;;;;;;;;;;5064619;28;20753;-84
2021/06/05 13:47:28;;;;;;;4.28;1.70;;;;;;;;;;5050001;28;20091;-86
2021/06/05 13:50:13;;;;;;;1.63;1.20;;;;;;;;;;5056548;28;20512;-87
2021/06/05 13:53:10;;;;;;;2.30;1.58;;;;;;;;;;5061100;28;20512;-87
2021/06/05 13:55:56;;;;;;;1.77;1.30;;;;;;;;;;5061373;28;20045;-85
2021/06/05 13:58:41;;;;;;;2.67;1.50;;;;;;;;;;5073618;28;20063;-85
2021/06/05 14:01:32;;;;;;;2.00;1.15;;;;;;;;;;5072781;28;20044;-86
2021/06/05 14:04:17;;;;;;;2.92;1.27;;;;;;;;;;5051622;28;20067;-81
2021/06/05 14:07:01;;;;;;;22.45;3.03;;;;;;;;;;5064778;28;20404;-80
2021/06/05 14:09:46;;;;;;;1.60;1.25;;;;;;;;;;5058192;28;20038;-82
2021/06/05 14:12:31;;;;;;;2.53;1.27;;;;;;;;;;5065414;28;20040;-85
2021/06/05 14:15:19;;;;;;;2.10;1.30;;;;;;;;;;5067793;28;20162;-85
2021/06/05 14:18:04;;;;;;;2.10;1.50;;;;;;;;;;5064832;28;20063;-83
2021/06/05 14:20:49;;;;;;;1.77;1.50;;;;;;;;;;5066460;28;20035;-82
2021/06/05 14:23:34;;;;;;;1.60;1.25;;;;;;;;;;5054335;28;20044;-73
2021/06/05 14:26:19;;;;;;;2.60;1.30;;;;;;;;;;5076836;28;20136;-72
2021/06/05 14:29:03;;;;;;;1.80;1.48;;;;;;;;;;5065106;28;20098;-74
2021/06/05 14:31:48;;;;;;;1.98;1.50;;;;;;;;;;5075337;28;20451;-72
2021/06/05 14:34:33;;;;;;;2.45;1.33;;;;;;;;;;5064961;28;21775;-71
2021/06/05 14:37:17;;;;;;;1.70;1.40;;;;;;;;;;5065775;28;20561;-71
2021/06/05 14:40:03;;;;;;;1.63;1.20;;;;;;;;;;5065136;28;20109;-71
2021/06/05 14:42:48;;;;;;;2.10;1.35;;;;;;;;;;5067428;28;20042;-71
2021/06/05 14:45:37;;;;;;;2.25;1.50;;;;;;;;;;5067011;28;20035;-72
2021/06/05 14:48:22;;;;;;;2.00;1.52;;;;;;;;;;5074756;28;20035;-75
2021/06/05 14:51:08;;;;;;;1.70;1.30;;;;;;;;;;5063111;28;20082;-72
2021/06/05 14:53:52;;;;;;;2.90;1.50;;;;;;;;;;5066966;28;20071;-71
2021/06/05 14:56:37;;;;;;;2.05;1.42;;;;;;;;;;5065266;28;20039;-73
2021/06/05 14:59:22;;;;;;;2.30;1.70;;;;;;;;;;5047970;28;20123;-71
2021/06/05 15:02:06;;;;;;;2.45;1.70;;;;;;;;;;5065917;28;20079;-71
2021/06/05 15:04:51;;;;;;;2.00;1.70;;;;;;;;;;5060223;28;20047;-71
2021/06/05 15:07:36;;;;;;;2.25;1.40;;;;;;;;;;5063855;28;20542;-70
2021/06/05 15:10:20;;;;;;;2.97;1.70;;;;;;;;;;5063340;28;20039;-70
2021/06/05 15:13:05;;;;;;;2.45;1.52;;;;;;;;;;5064668;28;20129;-70
2021/06/05 15:15:50;;;;;;;2.38;1.65;;;;;;;;;;5055823;28;20491;-72
2021/06/05 15:18:35;;;;;;;2.58;1.73;;;;;;;;;;5047936;28;21388;-71
2021/06/05 15:21:21;;;;;;;3.97;1.63;;;;;;;;;;5051975;28;20127;-71
2021/06/05 15:24:06;;;;;;;2.17;1.70;;;;;;;;;;5051176;28;20051;-71
2021/06/05 15:26:51;;;;;;;2.60;1.75;;;;;;;;;;5064877;28;20126;-71
2021/06/05 15:29:35;;;;;;;3.33;1.65;;;;;;;;;;5053190;28;20455;-72
2021/06/05 15:32:21;;;;;;;2.78;1.75;;;;;;;;;;5052473;28;21979;-74
2021/06/05 15:35:06;;;;;;;3.03;1.70;;;;;;;;;;5053603;28;20039;-71
2021/06/05 15:37:51;;;;;;;3.38;1.80;;;;;;;;;;5065623;28;20054;-71
2021/06/05 15:40:36;;;;;;;3.10;2.08;;;;;;;;;;5061067;28;20393;-74
2021/06/05 15:43:21;;;;;;;5.10;2.15;;;;;;;;;;5062814;28;20076;-76
2021/06/05 15:46:07;;;;;;;6.18;2.13;;;;;;;;;;5051816;28;20073;-75
2021/06/05 15:48:52;;;;;;;2.83;1.70;;;;;;;;;;5048119;28;20085;-75
2021/06/05 15:51:41;;;;;;;4.18;1.95;;;;;;;;;;5051019;28;20043;-74
2021/06/05 15:54:26;;;;;;;3.35;1.90;;;;;;;;;;5066284;28;20428;-73
2021/06/05 15:57:11;;;;;;;2.33;1.83;;;;;;;;;;5059808;28;20115;-74
2021/06/05 15:59:56;;;;;;;2.58;1.60;;;;;;;;;;5059760;28;20511;-74
2021/06/05 16:02:40;;;;;;;3.53;1.80;;;;;;;;;;5057193;28;20229;-74
2021/06/05 16:05:26;;;;;;;3.22;2.00;;;;;;;;;;5042334;28;20425;-73
2021/06/05 16:08:11;;;;;;;3.72;2.00;;;;;;;;;;5060818;28;20139;-74
2021/06/05 16:10:56;;;;;;;3.08;1.70;;;;;;;;;;5053021;28;20703;-73
2021/06/05 16:13:41;;;;;;;3.33;1.77;;;;;;;;;;5061663;28;20040;-73
2021/06/05 16:16:25;;;;;;;3.10;1.80;;;;;;;;;;5069366;28;20035;-73
2021/06/05 16:19:10;;;;;;;3.00;2.03;;;;;;;;;;5064278;28;20046;-74
2021/06/05 16:21:55;;;;;;;3.35;1.83;;;;;;;;;;5063376;28;20089;-74
2021/06/05 16:24:40;;;;;;;2.65;1.80;;;;;;;;;;5062581;28;20047;-73
2021/06/05 16:27:24;;;;;;;2.22;1.80;;;;;;;;;;5062975;28;20562;-73
2021/06/05 16:30:10;;;;;;;3.25;1.73;;;;;;;;;;5061861;28;20090;-72
2021/06/05 16:32:55;;;;;;;2.25;1.60;;;;;;;;;;5063952;28;20492;-73
2021/06/05 16:35:41;;;;;;;3.28;1.80;;;;;;;;;;5060320;28;20066;-72
2021/06/05 16:38:26;;;;;;;4.13;1.90;;;;;;;;;;5062967;28;20038;-74